Time;durP1;ratioP1;P1;durP2;ratioP2;P2;SDS_P1;SDS_P2;PMS_P1;PMS_P2;Temp;Humidity;BMP_temperature;BMP_pressure;BME280_temperature;BME280_humidity;BME280_pressure;Samples;Min_cycle;Max_cycle;Signal;HPM_P1;HPM_P2
2024/04/16 00:00:36;;;;;;;0.80;0.80;;;9.20;90.70;;;;;;11178895;26;20739;-78
2024/04/16 00:05:43;;;;;;;0.60;0.60;;;9.20;91.40;;;;;;11156790;26;20266;-76
2024/04/16 00:10:47;;;;;;;0.70;0.70;;;9.20;91.20;;;;;;11175882;26;20500;-77
2024/04/16 00:15:51;;;;;;;0.60;0.60;;;9.20;91.00;;;;;;11162150;26;20232;-78
2024/04/16 00:20:57;;;;;;;0.53;0.53;;;9.30;90.80;;;;;;11137028;26;20799;-78
2024/04/16 00:26:01;;;;;;;0.70;0.70;;;9.40;91.00;;;;;;11173401;26;20277;-79
2024/04/16 00:31:06;;;;;;;1.10;1.10;;;9.30;90.60;;;;;;11171104;26;20240;-79
2024/04/16 00:36:12;;;;;;;1.60;1.60;;;9.30;90.60;;;;;;11162467;26;20244;-78
2024/04/16 00:41:16;;;;;;;1.63;1.63;;;9.20;91.40;;;;;;11169365;26;20325;-78
2024/04/16 00:46:20;;;;;;;1.40;1.40;;;8.90;91.70;;;;;;11160965;26;20247;-78
2024/04/16 00:51:27;;;;;;;1.30;1.30;;;8.80;91.90;;;;;;11143807;26;20238;-78
2024/04/16 00:56:31;;;;;;;1.20;1.20;;;8.70;92.20;;;;;;11181378;26;20239;-78
2024/04/16 01:01:37;;;;;;;1.20;1.20;;;8.70;92.00;;;;;;11174704;26;20324;-77
2024/04/16 01:06:44;;;;;;;1.10;1.10;;;8.80;92.20;;;;;;11125251;26;20244;-73
2024/04/16 01:11:48;;;;;;;0.90;0.90;;;8.70;91.80;;;;;;11146843;26;20281;-79
2024/04/16 01:16:52;;;;;;;0.80;0.80;;;8.70;91.40;;;;;;11126987;26;20245;-79
2024/04/16 01:21:59;;;;;;;0.60;0.60;;;8.80;91.50;;;;;;11138830;26;20233;-77
2024/04/16 01:27:06;;;;;;;0.67;0.67;;;8.80;91.30;;;;;;11175405;26;20402;-78
2024/04/16 01:32:10;;;;;;;0.70;0.70;;;8.90;91.30;;;;;;11159012;26;20300;-79
2024/04/16 01:37:14;;;;;;;0.60;0.60;;;9.00;91.30;;;;;;11131013;26;20252;-79
2024/04/16 01:42:21;;;;;;;0.60;0.60;;;9.10;91.00;;;;;;11140686;26;20302;-78
2024/04/16 01:47:25;;;;;;;0.70;0.70;;;9.20;91.20;;;;;;11114310;26;20674;-76
2024/04/16 01:52:29;;;;;;;1.00;1.00;;;9.30;90.40;;;;;;11138426;26;20236;-78
2024/04/16 01:57:35;;;;;;;0.80;0.80;;;9.30;89.40;;;;;;11176094;26;20227;-78
2024/04/16 02:02:40;;;;;;;0.80;0.80;;;9.30;90.40;;;;;;11163435;26;20231;-79
2024/04/16 02:07:44;;;;;;;0.70;0.70;;;9.40;90.60;;;;;;11132902;26;20236;-78
2024/04/16 02:12:50;;;;;;;0.90;0.90;;;9.50;90.50;;;;;;11133451;26;20267;-77
2024/04/16 02:17:54;;;;;;;0.80;0.80;;;9.50;90.00;;;;;;11111602;26;20236;-77
2024/04/16 02:22:58;;;;;;;1.00;1.00;;;9.50;90.10;;;;;;11165923;26;20709;-77
2024/04/16 02:28:05;;;;;;;0.50;0.50;;;9.40;90.30;;;;;;11133151;26;20275;-78
2024/04/16 02:33:09;;;;;;;0.67;0.67;;;9.50;90.60;;;;;;11166930;26;20223;-77
2024/04/16 02:38:13;;;;;;;1.00;1.00;;;9.60;90.70;;;;;;11131931;26;20237;-79
2024/04/16 02:43:20;;;;;;;0.90;0.90;;;9.70;89.30;;;;;;11126532;26;20244;-78
2024/04/16 02:48:24;;;;;;;0.90;0.90;;;9.60;89.60;;;;;;11111927;26;20236;-78
2024/04/16 02:53:28;;;;;;;1.10;1.10;;;9.50;88.40;;;;;;11164722;26;20239;-79
2024/04/16 02:58:34;;;;;;;2.30;2.30;;;9.40;89.60;;;;;;11184839;26;20332;-78
2024/04/16 03:03:40;;;;;;;4.80;4.80;;;9.20;90.40;;;;;;11152705;26;20328;-78
2024/04/16 03:08:44;;;;;;;5.40;5.40;;;9.00;92.20;;;;;;11168647;26;20335;-79
2024/04/16 03:13:50;;;;;;;6.10;6.10;;;8.80;92.70;;;;;;11184207;26;20238;-79
2024/04/16 03:18:54;;;;;;;5.90;5.90;;;8.60;93.60;;;;;;11179551;26;20759;-77
2024/04/16 03:23:58;;;;;;;6.60;6.60;;;8.30;93.40;;;;;;11148838;26;20255;-77
2024/04/16 03:29:05;;;;;;;6.50;6.50;;;8.10;93.90;;;;;;11184968;26;20235;-78
2024/04/16 03:34:09;;;;;;;6.50;6.50;;;7.90;94.10;;;;;;11184975;26;20262;-78
2024/04/16 03:39:13;;;;;;;7.03;7.00;;;7.80;94.70;;;;;;11131725;26;20248;-78
2024/04/16 03:44:19;;;;;;;6.10;6.10;;;7.80;95.20;;;;;;11162437;26;20716;-76
2024/04/16 03:49:23;;;;;;;5.30;5.30;;;7.80;95.60;;;;;;11131081;26;20340;-77
2024/04/16 03:54:27;;;;;;;5.30;5.30;;;7.80;95.40;;;;;;11164066;26;20262;-77
2024/04/16 04:04:50;;;;;;;4.40;4.40;;;7.60;95.50;;;;;;11129816;26;20268;-78
2024/04/16 04:09:54;;;;;;;3.50;3.50;;;7.60;95.40;;;;;;11165625;26;20243;-78
2024/04/16 04:15:01;;;;;;;3.40;3.40;;;7.60;95.80;;;;;;11175079;26;20227;-78
2024/04/16 04:20:05;;;;;;;3.20;3.20;;;7.60;95.70;;;;;;11126800;26;20676;-78
2024/04/16 04:25:09;;;;;;;2.80;2.80;;;7.80;95.90;;;;;;11173158;26;20244;-78
2024/04/16 04:30:16;;;;;;;2.13;2.13;;;7.80;95.60;;;;;;11181856;26;20247;-77
2024/04/16 04:35:20;;;;;;;2.40;2.40;;;7.90;95.10;;;;;;11116658;26;20686;-78
2024/04/16 04:40:24;;;;;;;2.40;2.40;;;7.90;95.10;;;;;;11164707;26;20813;-77
2024/04/16 04:45:31;;;;;;;1.60;1.60;;;7.90;94.90;;;;;;11114679;26;20244;-77
2024/04/16 04:50:35;;;;;;;1.40;1.40;;;7.90;94.90;;;;;;11164338;26;20235;-77
2024/04/16 04:55:39;;;;;;;1.53;1.53;;;8.00;94.60;;;;;;11166213;26;20695;-77
2024/04/16 05:00:45;;;;;;;1.40;1.40;;;8.10;94.50;;;;;;11187482;26;20235;-78
2024/04/16 05:05:49;;;;;;;1.20;1.20;;;8.10;94.70;;;;;;11131419;26;20332;-77
2024/04/16 05:10:53;;;;;;;1.50;1.50;;;8.10;94.20;;;;;;11180389;26;20319;-77
2024/04/16 05:16:01;;;;;;;1.37;1.37;;;8.20;94.30;;;;;;11170497;26;20248;-77
2024/04/16 05:21:05;;;;;;;1.10;1.10;;;8.30;94.10;;;;;;11185837;26;20223;-78
2024/04/16 05:26:09;;;;;;;1.10;1.10;;;8.50;94.30;;;;;;11170706;26;20758;-77
2024/04/16 05:31:16;;;;;;;1.10;1.10;;;8.70;93.80;;;;;;11188400;26;20323;-76
2024/04/16 05:36:20;;;;;;;0.90;0.90;;;8.80;93.70;;;;;;11188956;26;20258;-77
2024/04/16 05:41:24;;;;;;;1.07;1.07;;;9.00;93.30;;;;;;11181121;26;20259;-77
2024/04/16 05:46:30;;;;;;;0.80;0.80;;;9.10;92.70;;;;;;11169548;26;20243;-77
2024/04/16 05:51:34;;;;;;;1.10;1.10;;;9.10;92.50;;;;;;11138474;26;20450;-77
2024/04/16 05:56:38;;;;;;;1.10;1.10;;;9.10;92.10;;;;;;11240053;26;20770;-77
2024/04/16 06:01:45;;;;;;;0.80;0.80;;;9.10;92.30;;;;;;11206633;26;20296;-77
2024/04/16 06:06:49;;;;;;;1.00;1.00;;;9.20;92.20;;;;;;11124384;26;20721;-77
2024/04/16 06:11:53;;;;;;;0.90;0.90;;;9.30;92.40;;;;;;11126196;26;20269;-77
2024/04/16 06:17:00;;;;;;;1.20;1.20;;;9.60;92.50;;;;;;11187359;26;20234;-78
2024/04/16 06:22:04;;;;;;;0.70;0.70;;;9.70;92.00;;;;;;11172585;26;20263;-78
2024/04/16 06:27:08;;;;;;;0.80;0.80;;;9.90;91.50;;;;;;11176135;26;20705;-77
2024/04/16 06:32:16;;;;;;;0.70;0.70;;;10.10;90.50;;;;;;11186888;26;20239;-77
2024/04/16 06:37:20;;;;;;;0.60;0.60;;;10.30;90.40;;;;;;11129291;26;20795;-77
2024/04/16 06:42:24;;;;;;;0.70;0.70;;;10.50;90.20;;;;;;11167743;26;20235;-78
2024/04/16 06:47:30;;;;;;;0.70;0.70;;;10.70;88.40;;;;;;11131474;26;20244;-77
2024/04/16 06:52:34;;;;;;;0.97;0.97;;;10.80;88.10;;;;;;11169819;26;20319;-77
2024/04/16 06:57:38;;;;;;;0.80;0.80;;;10.80;87.90;;;;;;11184884;26;20296;-75
2024/04/16 07:02:45;;;;;;;0.90;0.90;;;10.80;86.80;;;;;;11128724;26;20240;-76
2024/04/16 07:07:49;;;;;;;0.90;0.90;;;10.90;85.00;;;;;;11153536;26;20281;-77
2024/04/16 07:12:53;;;;;;;1.00;1.00;;;10.90;82.80;;;;;;11185525;26;20234;-77
2024/04/16 07:18:00;;;;;;;1.00;1.00;;;11.10;81.30;;;;;;11185991;26;20239;-76
2024/04/16 07:23:04;;;;;;;0.87;0.87;;;11.20;78.50;;;;;;11158910;26;20244;-77
2024/04/16 07:28:09;;;;;;;0.80;0.80;;;11.20;79.80;;;;;;11184037;26;20247;-78
2024/04/16 07:33:16;;;;;;;0.50;0.50;;;11.30;79.00;;;;;;11129749;26;20240;-78
2024/04/16 07:38:20;;;;;;;0.50;0.50;;;11.40;76.70;;;;;;11167078;26;20331;-77
2024/04/16 07:43:26;;;;;;;0.60;0.60;;;11.50;74.00;;;;;;11160546;26;20265;-77
2024/04/16 07:48:32;;;;;;;0.70;0.70;;;11.50;75.00;;;;;;11110257;26;20244;-76
2024/04/16 07:53:37;;;;;;;0.70;0.70;;;11.50;73.80;;;;;;11180275;26;20229;-78
2024/04/16 07:58:41;;;;;;;0.60;0.60;;;11.80;73.30;;;;;;11205780;26;20323;-79
2024/04/16 08:03:48;;;;;;;0.60;0.60;;;12.10;72.90;;;;;;11145445;26;20662;-78
2024/04/16 08:08:56;;;;;;;0.60;0.60;;;12.30;71.20;;;;;;11108951;26;20244;-77
2024/04/16 08:14:00;;;;;;;0.50;0.50;;;12.40;67.70;;;;;;11125007;26;20236;-77
2024/04/16 08:19:06;;;;;;;0.60;0.60;;;12.40;69.00;;;;;;11166276;26;20339;-78
2024/04/16 08:24:10;;;;;;;0.60;0.60;;;12.50;68.60;;;;;;11167499;26;20683;-79
2024/04/16 08:29:14;;;;;;;0.60;0.60;;;12.70;69.20;;;;;;11182434;26;20235;-78
2024/04/16 08:34:21;;;;;;;0.50;0.50;;;12.80;68.70;;;;;;11175521;26;20270;-78
2024/04/16 08:39:25;;;;;;;0.50;0.50;;;13.00;67.00;;;;;;11101997;26;20337;-79
2024/04/16 08:44:30;;;;;;;0.60;0.60;;;13.10;66.80;;;;;;11173121;26;20277;-76
2024/04/16 08:49:39;;;;;;;0.57;0.57;;;13.10;66.70;;;;;;11131908;26;20236;-79
2024/04/16 08:54:45;;;;;;;0.70;0.70;;;13.20;64.10;;;;;;11150281;26;20227;-78
2024/04/16 08:59:49;;;;;;;0.70;0.70;;;13.50;63.10;;;;;;11188741;26;20231;-81
2024/04/16 09:04:59;;;;;;;0.50;0.50;;;13.50;64.40;;;;;;11135644;26;20244;-78
2024/04/16 09:10:03;;;;;;;0.50;0.50;;;13.50;65.90;;;;;;11116351;26;20248;-78
2024/04/16 09:15:07;;;;;;;0.70;0.70;;;13.50;64.70;;;;;;11159109;26;20228;-78
2024/04/16 09:20:16;;;;;;;0.50;0.50;;;13.40;65.40;;;;;;11187963;26;20239;-78
2024/04/16 09:25:22;;;;;;;0.60;0.60;;;13.50;64.80;;;;;;11166696;26;20231;-78
2024/04/16 09:30:26;;;;;;;0.60;0.60;;;13.70;65.10;;;;;;11188809;26;20652;-77
2024/04/16 09:35:34;;;;;;;0.60;0.60;;;13.90;63.70;;;;;;11187191;26;20242;-78
2024/04/16 09:40:39;;;;;;;0.70;0.70;;;13.90;63.80;;;;;;11127821;26;20259;-79
2024/04/16 09:45:43;;;;;;;0.70;0.70;;;14.00;64.60;;;;;;11131254;26;20271;-77
2024/04/16 09:50:51;;;;;;;0.60;0.60;;;13.90;63.80;;;;;;11174574;26;20335;-77
2024/04/16 09:55:56;;;;;;;0.60;0.60;;;14.00;66.00;;;;;;11181267;26;20700;-78
2024/04/16 10:01:00;;;;;;;0.70;0.70;;;14.00;65.70;;;;;;11186797;26;20324;-77
2024/04/16 10:06:10;;;;;;;0.70;0.70;;;13.90;66.40;;;;;;11118497;26;20247;-79
2024/04/16 10:11:15;;;;;;;0.60;0.60;;;14.00;65.60;;;;;;11173540;26;20239;-78
2024/04/16 10:16:19;;;;;;;0.23;0.23;;;14.00;66.90;;;;;;11176321;26;20647;-78
2024/04/16 10:21:29;;;;;;;0.63;0.63;;;14.10;65.30;;;;;;11124958;26;20262;-78
2024/04/16 10:26:33;;;;;;;0.60;0.60;;;14.10;65.10;;;;;;11177068;26;20300;-78
2024/04/16 10:31:40;;;;;;;0.50;0.50;;;13.90;65.00;;;;;;11183555;26;20300;-78
2024/04/16 10:36:47;;;;;;;0.50;0.50;;;13.90;66.20;;;;;;11122587;26;20279;-79
2024/04/16 10:41:55;;;;;;;0.60;0.60;;;13.80;67.10;;;;;;11171066;26;20240;-77
2024/04/16 10:47:00;;;;;;;0.60;0.60;;;13.70;69.00;;;;;;11176319;26;20231;-77
2024/04/16 10:52:13;;;;;;;0.60;0.60;;;13.70;68.00;;;;;;11129481;26;20328;-77
2024/04/16 10:57:17;;;;;;;0.30;0.30;;;13.80;67.20;;;;;;11267630;26;20238;-78
2024/04/16 11:02:22;;;;;;;0.50;0.50;;;13.90;68.70;;;;;;11193662;26;20231;-77
2024/04/16 11:07:29;;;;;;;0.60;0.60;;;14.20;66.00;;;;;;11181226;26;20263;-78
2024/04/16 11:12:34;;;;;;;0.60;0.60;;;14.30;68.10;;;;;;11170444;26;20241;-78
2024/04/16 11:17:38;;;;;;;0.53;0.53;;;14.50;67.20;;;;;;11175926;26;20755;-78
2024/04/16 11:22:44;;;;;;;0.60;0.60;;;14.50;67.00;;;;;;11169124;26;20266;-77
2024/04/16 11:27:48;;;;;;;0.50;0.50;;;14.30;66.60;;;;;;11182393;26;20266;-77
2024/04/16 11:32:53;;;;;;;0.50;0.50;;;14.40;69.50;;;;;;11135376;26;20242;-77
2024/04/16 11:38:01;;;;;;;0.50;0.50;;;14.40;70.00;;;;;;11116477;26;20344;-77
2024/04/16 11:43:06;;;;;;;0.40;0.40;;;14.50;68.20;;;;;;11155005;26;20267;-78
2024/04/16 11:48:10;;;;;;;0.40;0.40;;;14.70;70.40;;;;;;11172281;26;20235;-77
2024/04/16 11:53:17;;;;;;;0.60;0.60;;;15.00;64.70;;;;;;11135082;26;20767;-77
2024/04/16 11:58:21;;;;;;;0.37;0.37;;;15.10;64.60;;;;;;11182279;26;20302;-77
2024/04/16 12:03:25;;;;;;;0.50;0.50;;;15.00;63.90;;;;;;11138906;26;20751;-77
2024/04/16 12:08:32;;;;;;;0.40;0.40;;;14.90;69.80;;;;;;11114301;26;20716;-77
2024/04/16 12:13:36;;;;;;;0.40;0.40;;;14.70;70.70;;;;;;11147324;26;20752;-79
2024/04/16 12:18:40;;;;;;;0.40;0.40;;;14.80;69.00;;;;;;11144257;26;20343;-77
2024/04/16 12:23:47;;;;;;;0.57;0.57;;;14.90;68.10;;;;;;11142748;26;20270;-77
2024/04/16 12:28:55;;;;;;;0.40;0.40;;;14.70;68.10;;;;;;11180469;26;20228;-77
2024/04/16 12:34:01;;;;;;;0.40;0.40;;;14.60;68.60;;;;;;11144452;26;20686;-76
2024/04/16 12:39:08;;;;;;;0.50;0.50;;;14.60;65.60;;;;;;11112973;26;20235;-77
2024/04/16 12:44:12;;;;;;;0.50;0.50;;;14.60;67.40;;;;;;11139795;26;20648;-77
2024/04/16 12:49:16;;;;;;;0.53;0.53;;;14.70;65.00;;;;;;11174231;26;20277;-78
2024/04/16 12:54:23;;;;;;;0.40;0.40;;;14.80;67.00;;;;;;11149834;26;20231;-77
2024/04/16 12:59:27;;;;;;;0.30;0.30;;;14.90;65.20;;;;;;11154850;26;20283;-78
2024/04/16 13:04:31;;;;;;;0.50;0.50;;;15.00;65.80;;;;;;11133122;26;20325;-78
2024/04/16 13:09:37;;;;;;;0.40;0.40;;;15.10;64.80;;;;;;11172108;26;20247;-77
2024/04/16 13:14:41;;;;;;;0.40;0.40;;;15.10;65.60;;;;;;11153251;26;20239;-77
2024/04/16 13:19:49;;;;;;;0.50;0.50;;;15.10;64.60;;;;;;11183026;26;20243;-78
2024/04/16 13:24:56;;;;;;;0.30;0.30;;;14.90;65.40;;;;;;11161176;26;20803;-77
2024/04/16 13:30:00;;;;;;;0.40;0.40;;;14.90;65.60;;;;;;11185869;26;20242;-77
2024/04/16 13:35:04;;;;;;;0.60;0.60;;;14.90;65.60;;;;;;11164798;26;20610;-78
2024/04/16 13:40:12;;;;;;;0.43;0.43;;;14.90;69.00;;;;;;11186192;26;20686;-78
2024/04/16 13:45:16;;;;;;;0.60;0.60;;;14.70;68.00;;;;;;11166696;26;20228;-78
2024/04/16 13:50:20;;;;;;;0.50;0.50;;;14.50;69.70;;;;;;11121386;26;20244;-78
2024/04/16 13:55:26;;;;;;;0.53;0.53;;;14.30;68.60;;;;;;11166183;26;20231;-78
2024/04/16 14:00:30;;;;;;;0.60;0.60;;;14.40;68.30;;;;;;11185036;26;20334;-78
2024/04/16 14:05:34;;;;;;;0.50;0.50;;;14.30;67.60;;;;;;11170333;26;20274;-77
2024/04/16 14:10:41;;;;;;;0.60;0.60;;;14.40;69.50;;;;;;11116169;26;20287;-77
2024/04/16 14:15:45;;;;;;;0.70;0.70;;;14.50;67.40;;;;;;11124326;26;20267;-76
2024/04/16 14:20:49;;;;;;;0.40;0.40;;;14.40;67.00;;;;;;11178695;26;20235;-77
2024/04/16 14:25:56;;;;;;;0.50;0.50;;;14.50;67.60;;;;;;11173862;26;20235;-75
2024/04/16 14:31:00;;;;;;;0.50;0.50;;;14.40;67.30;;;;;;11182570;26;20234;-76
2024/04/16 14:36:04;;;;;;;0.43;0.43;;;14.20;67.80;;;;;;11176330;26;20247;-76
2024/04/16 14:41:11;;;;;;;0.50;0.50;;;14.20;66.90;;;;;;11115549;26;20332;-76
2024/04/16 14:46:15;;;;;;;0.60;0.60;;;14.20;66.80;;;;;;11116568;26;20247;-77
2024/04/16 14:51:19;;;;;;;0.60;0.60;;;14.20;68.10;;;;;;11176279;26;20247;-77
2024/04/16 14:56:25;;;;;;;0.60;0.60;;;14.40;65.70;;;;;;11177330;26;20235;-76
2024/04/16 15:01:29;;;;;;;0.47;0.47;;;14.30;67.70;;;;;;11138627;26;20723;-78
2024/04/16 15:06:34;;;;;;;0.50;0.50;;;14.40;67.80;;;;;;11112072;26;20240;-77
2024/04/16 15:11:41;;;;;;;0.60;0.60;;;14.40;67.80;;;;;;11178765;26;20243;-77
2024/04/16 15:16:45;;;;;;;0.60;0.60;;;14.30;67.40;;;;;;11183271;26;20612;-77
2024/04/16 15:21:49;;;;;;;0.50;0.50;;;14.30;67.50;;;;;;11172637;26;20239;-77
2024/04/16 15:26:55;;;;;;;0.50;0.50;;;14.10;67.70;;;;;;11172510;26;20246;-77
2024/04/16 15:31:59;;;;;;;0.60;0.60;;;14.30;67.00;;;;;;11185944;21;20270;-78
2024/04/16 15:37:05;;;;;;;0.50;0.50;;;14.30;67.90;;;;;;11256819;26;20234;-77
2024/04/16 15:42:11;;;;;;;0.60;0.60;;;14.40;66.30;;;;;;11256808;26;20296;-78
2024/04/16 15:47:15;;;;;;;0.70;0.70;;;14.50;68.90;;;;;;11258526;26;20230;-77
2024/04/16 15:52:19;;;;;;;0.40;0.40;;;14.60;67.90;;;;;;11255553;26;20385;-77
2024/04/16 15:57:26;;;;;;;0.60;0.60;;;14.70;67.30;;;;;;11260873;26;20256;-77
2024/04/16 16:02:30;;;;;;;0.60;0.60;;;14.60;67.40;;;;;;11263563;26;20265;-77
2024/04/16 16:07:34;;;;;;;0.40;0.40;;;14.60;73.10;;;;;;11258936;26;20331;-77
2024/04/16 16:12:40;;;;;;;0.60;0.60;;;14.40;75.40;;;;;;11255432;26;20522;-77
2024/04/16 16:17:44;;;;;;;0.60;0.60;;;14.20;74.80;;;;;;11251506;26;20234;-77
2024/04/16 16:22:52;;;;;;;0.60;0.60;;;14.10;72.30;;;;;;11247826;26;20242;-77
2024/04/16 16:27:58;;;;;;;0.33;0.33;;;14.10;71.40;;;;;;11243731;26;20226;-77
2024/04/16 16:33:02;;;;;;;0.50;0.50;;;14.00;71.10;;;;;;11254905;26;20766;-77
2024/04/16 16:38:06;;;;;;;0.50;0.50;;;14.00;70.80;;;;;;11254564;26;20230;-78
2024/04/16 16:43:13;;;;;;;0.40;0.40;;;13.80;72.10;;;;;;11283615;26;20242;-77
2024/04/16 16:48:17;;;;;;;0.50;0.50;;;13.60;72.10;;;;;;11253065;26;20728;-78
2024/04/16 16:53:21;;;;;;;0.60;0.60;;;13.50;72.80;;;;;;11255251;26;20238;-78
2024/04/16 16:58:28;;;;;;;0.40;0.40;;;13.40;73.00;;;;;;11259816;26;20735;-78
2024/04/16 17:03:32;;;;;;;0.60;0.60;;;13.40;73.00;;;;;;11259932;26;20606;-79
2024/04/16 17:08:36;;;;;;;0.60;0.60;;;13.40;73.20;;;;;;11265995;26;20620;-78
2024/04/16 17:13:43;;;;;;;0.50;0.50;;;13.50;72.90;;;;;;11299664;26;20226;-77
2024/04/16 17:18:47;;;;;;;0.53;0.53;;;13.40;73.60;;;;;;11262108;26;20268;-78
2024/04/16 17:23:51;;;;;;;0.70;0.70;;;13.40;75.40;;;;;;11259869;26;20245;-78
2024/04/16 17:29:01;;;;;;;0.60;0.60;;;13.30;78.20;;;;;;11261097;26;20238;-78
2024/04/16 17:34:05;;;;;;;0.60;0.60;;;13.10;79.40;;;;;;11261945;26;20234;-77
2024/04/16 17:39:10;;;;;;;0.70;0.70;;;13.00;80.20;;;;;;11262043;26;20266;-77
2024/04/16 17:44:17;;;;;;;0.60;0.60;;;12.90;79.80;;;;;;11261295;26;20341;-78
2024/04/16 17:49:21;;;;;;;0.50;0.50;;;12.90;79.50;;;;;;11264256;26;20234;-77
2024/04/16 17:54:25;;;;;;;0.50;0.50;;;12.90;78.30;;;;;;11260575;26;20250;-78
2024/04/16 17:59:35;;;;;;;0.80;0.80;;;12.90;78.70;;;;;;11260706;26;20265;-77
2024/04/16 18:04:39;;;;;;;0.60;0.60;;;12.80;78.10;;;;;;11259893;26;20246;-77
2024/04/16 18:09:43;;;;;;;0.70;0.70;;;12.80;78.10;;;;;;11259833;26;20242;-78
2024/04/16 18:14:52;;;;;;;0.60;0.60;;;12.70;77.50;;;;;;11257756;26;20349;-77
2024/04/16 18:19:56;;;;;;;0.60;0.60;;;12.70;76.80;;;;;;11231490;26;20241;-77
2024/04/16 18:25:01;;;;;;;0.70;0.70;;;12.70;77.10;;;;;;11257205;26;20234;-78
2024/04/16 18:30:09;;;;;;;0.67;0.67;;;12.70;77.10;;;;;;11258877;26;21158;-77
2024/04/16 18:35:13;;;;;;;0.60;0.60;;;12.60;77.10;;;;;;11264137;26;20590;-77
2024/04/16 18:40:17;;;;;;;0.63;0.63;;;12.70;77.30;;;;;;11254659;26;20326;-77
2024/04/16 18:45:24;;;;;;;0.70;0.70;;;12.70;77.70;;;;;;11257449;26;20336;-77
2024/04/16 18:50:28;;;;;;;0.70;0.70;;;12.70;77.10;;;;;;11256922;26;20242;-77
2024/04/16 18:55:32;;;;;;;0.80;0.80;;;12.60;76.90;;;;;;11246950;26;20261;-76
2024/04/16 19:00:40;;;;;;;0.70;0.70;;;12.60;76.50;;;;;;11253372;26;20234;-75
2024/04/16 19:05:45;;;;;;;0.73;0.73;;;12.70;76.60;;;;;;11250872;26;20282;-75
2024/04/16 19:10:49;;;;;;;0.70;0.70;;;12.60;76.40;;;;;;11281759;26;20312;-77
2024/04/16 19:16:02;;;;;;;0.70;0.70;;;12.60;78.40;;;;;;11270757;26;20338;-76
2024/04/16 19:21:07;;;;;;;0.87;0.87;;;12.50;79.70;;;;;;11244559;26;20354;-77
2024/04/16 19:26:13;;;;;;;0.77;0.77;;;12.30;84.00;;;;;;11245476;26;20226;-77
2024/04/16 19:31:19;;;;;;;1.40;1.40;;;12.00;86.50;;;;;;11235967;26;20238;-77
2024/04/16 19:36:23;;;;;;;1.10;1.10;;;11.80;88.20;;;;;;11250307;26;20234;-77
2024/04/16 19:41:28;;;;;;;1.10;1.10;;;11.50;89.60;;;;;;11246266;26;20241;-76
2024/04/16 19:46:34;;;;;;;1.07;1.07;;;11.30;90.40;;;;;;11242198;26;20230;-77
2024/04/16 19:51:38;;;;;;;1.00;1.00;;;11.20;91.00;;;;;;11249453;26;20766;-77
2024/04/16 19:56:42;;;;;;;1.37;1.37;;;11.10;91.40;;;;;;11242820;26;20238;-77
2024/04/16 20:01:49;;;;;;;1.00;1.00;;;11.10;91.40;;;;;;11272241;26;20242;-77
2024/04/16 20:06:53;;;;;;;1.20;1.20;;;11.10;91.50;;;;;;11243322;26;20284;-77
2024/04/16 20:11:57;;;;;;;1.00;1.00;;;11.10;91.10;;;;;;11399843;25;20780;-77
2024/04/16 20:17:06;;;;;;;0.70;0.70;;;11.10;91.10;;;;;;11408845;25;20655;-77
2024/04/16 20:22:09;;;;;;;1.10;1.10;;;11.20;91.00;;;;;;11395178;25;20346;-77
2024/04/16 20:27:13;;;;;;;1.00;1.00;;;11.20;90.90;;;;;;11424232;25;20224;-76
2024/04/16 20:32:20;;;;;;;1.10;1.10;;;11.20;90.60;;;;;;11441476;25;20282;-77
2024/04/16 20:37:24;;;;;;;0.80;0.80;;;11.20;90.20;;;;;;11402897;25;20235;-76
2024/04/16 20:42:28;;;;;;;1.20;1.20;;;11.10;90.10;;;;;;11436701;25;20653;-77
2024/04/16 20:47:35;;;;;;;0.83;0.83;;;11.10;89.70;;;;;;11432583;25;20224;-77
2024/04/16 20:52:39;;;;;;;0.70;0.70;;;11.10;89.60;;;;;;11420956;25;20239;-77
2024/04/16 20:57:43;;;;;;;1.00;1.00;;;11.00;89.70;;;;;;11394558;25;20804;-77
2024/04/16 21:02:51;;;;;;;0.70;0.70;;;11.10;89.70;;;;;;11428786;25;20808;-77
2024/04/16 21:07:55;;;;;;;0.60;0.60;;;11.00;90.00;;;;;;11456604;25;20329;-77
2024/04/16 21:12:59;;;;;;;1.00;1.00;;;11.10;88.90;;;;;;11438087;25;20338;-77
2024/04/16 21:18:06;;;;;;;0.93;0.93;;;11.10;89.00;;;;;;11440318;26;20235;-77
2024/04/16 21:23:10;;;;;;;1.00;1.00;;;11.10;89.10;;;;;;11433085;25;20244;-77
2024/04/16 21:28:14;;;;;;;1.00;1.00;;;11.00;88.10;;;;;;11462257;25;20265;-77
2024/04/16 21:33:21;;;;;;;0.70;0.70;;;11.00;89.00;;;;;;11442356;25;20239;-77
2024/04/16 21:38:25;;;;;;;0.70;0.70;;;11.00;88.90;;;;;;11416140;26;20258;-77
2024/04/16 21:43:29;;;;;;;0.70;0.70;;;11.00;87.10;;;;;;11430371;25;20335;-77
2024/04/16 21:48:35;;;;;;;0.60;0.60;;;11.00;87.70;;;;;;11430865;26;20239;-77
2024/04/16 21:53:39;;;;;;;0.90;0.90;;;11.00;87.90;;;;;;11401181;25;20270;-77
2024/04/16 21:58:43;;;;;;;0.80;0.80;;;11.00;87.10;;;;;;11422487;26;20235;-76
2024/04/16 22:03:50;;;;;;;0.73;0.73;;;11.00;87.50;;;;;;11425426;25;21234;-77
2024/04/16 22:08:54;;;;;;;0.70;0.70;;;11.00;87.30;;;;;;11374157;26;20323;-77
2024/04/16 22:13:58;;;;;;;0.90;0.90;;;11.00;87.40;;;;;;11402854;25;20339;-77
2024/04/16 22:19:05;;;;;;;0.60;0.60;;;11.00;87.60;;;;;;11392201;26;20228;-77
2024/04/16 22:24:08;;;;;;;0.60;0.60;;;11.00;87.70;;;;;;11407228;26;20232;-77
2024/04/16 22:29:12;;;;;;;0.50;0.50;;;11.00;87.60;;;;;;11429793;25;20235;-77
2024/04/16 22:34:19;;;;;;;0.70;0.70;;;10.90;87.50;;;;;;11408927;26;20228;-77
2024/04/16 22:39:23;;;;;;;0.80;0.80;;;10.90;87.50;;;;;;11342550;26;20912;-77
2024/04/16 22:44:27;;;;;;;0.70;0.70;;;10.90;87.40;;;;;;11429960;25;20646;-77
2024/04/16 22:49:34;;;;;;;0.50;0.50;;;10.90;87.70;;;;;;11373986;26;20239;-77
2024/04/16 22:54:38;;;;;;;0.80;0.80;;;11.00;87.50;;;;;;11447417;25;20236;-77
2024/04/16 22:59:45;;;;;;;0.80;0.80;;;11.00;87.20;;;;;;11398194;26;20254;-77
2024/04/16 23:04:51;;;;;;;0.80;0.80;;;11.00;87.00;;;;;;11350976;26;20616;-77
2024/04/16 23:09:55;;;;;;;0.73;0.73;;;11.00;86.90;;;;;;11411064;25;20236;-77
2024/04/16 23:14:59;;;;;;;0.80;0.80;;;11.00;87.30;;;;;;11459642;25;20716;-77
2024/04/16 23:20:07;;;;;;;0.80;0.80;;;11.00;88.30;;;;;;11426773;25;20228;-77
2024/04/16 23:25:11;;;;;;;1.00;1.00;;;11.00;88.50;;;;;;11459501;25;21039;-76
2024/04/16 23:30:15;;;;;;;0.60;0.60;;;11.00;87.70;;;;;;11430703;25;20636;-77
2024/04/16 23:35:22;;;;;;;0.60;0.60;;;11.00;88.00;;;;;;11467169;25;20729;-77
2024/04/16 23:40:26;;;;;;;0.80;0.80;;;11.00;88.10;;;;;;11459056;25;20231;-77
2024/04/16 23:45:30;;;;;;;0.50;0.50;;;11.00;88.70;;;;;;11459873;25;20323;-77
2024/04/16 23:50:36;;;;;;;0.90;0.90;;;11.00;89.60;;;;;;11465783;25;20228;-77
2024/04/16 23:55:41;;;;;;;0.90;0.90;;;10.90;90.40;;;;;;11458124;25;20262;-77
